Luminous Kobe-2 — JJ3868 — position and weather

sailwx.info

Track history (hours):
 
Tides and Currents Weather Stations Pressure Air Temp Water Temp Dewpoint Dewpoint Depression Visibility Wind Speed Wind Dir Waves Ship Positions

Luminous Kobe-2

Last reported at 2014-Nov-21 10:33 UTC. Time now 2014-Nov-21 10:39 UTC.
Position N 34°37' E 135°07'.

Length 105 m; draft 4.5 m.

Type: Passenger vessel. MMSI: 431000469.

Date/timePositionNaut miles runAvg speedWind from/ knotsBaromVisibWave heightAir tempDewpointWater temp
2014-Nov-21 10:33N 34°37' E 135°07'6 5.0
2014-Nov-21 09:27N 34°41' E 135°11'0 0.0
2014-Nov-21 08:33N 34°41' E 135°11'5 4.8
2014-Nov-21 07:33N 34°38' E 135°07'5 4.8
2014-Nov-21 06:33N 34°41' E 135°11'0 0.0
2014-Nov-21 05:23N 34°41' E 135°11'2 2.9
2014-Nov-21 04:33N 34°38' E 135°11'2 2.3
2014-Nov-21 03:33N 34°37' E 135°14'4 4.0
2014-Nov-21 02:33N 34°41' E 135°11'0 0.0
2014-Nov-21 01:30N 34°41' E 135°11'0 0.0
2014-Nov-21 00:30N 34°41' E 135°11'0 0.0
2014-Nov-20 23:30N 34°41' E 135°11'0 0.0
2014-Nov-20 22:30N 34°41' E 135°11'0 0.0
2014-Nov-20 21:24N 34°41' E 135°11'0 0.0
2014-Nov-20 20:24N 34°41' E 135°11'0 0.0
2014-Nov-20 19:24N 34°41' E 135°11'0 0.0
2014-Nov-20 18:30N 34°41' E 135°11'0 0.0
2014-Nov-20 17:30N 34°41' E 135°11'0 0.0
2014-Nov-20 16:30N 34°41' E 135°11'0 0.0
2014-Nov-20 15:30N 34°41' E 135°11'0 0.0
2014-Nov-20 14:30N 34°41' E 135°11'0 0.0
2014-Nov-20 13:30N 34°41' E 135°11'0 0.0
2014-Nov-20 12:30N 34°41' E 135°11'7 7.2
2014-Nov-20 11:33N 34°36' E 135°06'2 2.2
2014-Nov-20 10:33N 34°37' E 135°08'5 4.5
2014-Nov-20 09:31N 34°41' E 135°11'5 5.1
2014-Nov-20 08:33N 34°37' E 135°07'5 4.1
2014-Nov-20 07:22N 34°41' E 135°11'0 0.0
2014-Nov-20 06:28N 34°41' E 135°11'0 0.0
2014-Nov-20 05:28N 34°41' E 135°11'3 2.8
2014-Nov-20 04:33N 34°38' E 135°11'3 2.7
2014-Nov-20 03:33N 34°37' E 135°14'5 4.6
2014-Nov-20 02:33N 34°41' E 135°11'0 0.0
2014-Nov-20 01:33N 34°41' E 135°11'0 0.0
2014-Nov-20 00:27N 34°41' E 135°11'0 0.0
2014-Nov-19 23:27N 34°41' E 135°11'0 0.0
2014-Nov-19 22:27N 34°41' E 135°11'0 0.0
2014-Nov-19 21:21N 34°41' E 135°11'0 0.0
2014-Nov-19 20:33N 34°41' E 135°11'0 0.0
2014-Nov-19 19:33N 34°41' E 135°11'0 0.0
2014-Nov-19 18:33N 34°41' E 135°11'0 0.0
2014-Nov-19 17:33N 34°41' E 135°11'0 0.0
2014-Nov-19 16:33N 34°41' E 135°11'0 0.0
2014-Nov-19 15:33N 34°41' E 135°11'0 0.0
2014-Nov-19 14:33N 34°41' E 135°11'0 0.0
2014-Nov-19 13:33N 34°41' E 135°11'0 0.0
2014-Nov-19 12:33N 34°41' E 135°11'6 6.0
2014-Nov-19 11:33N 34°36' E 135°07'1 1.0
2014-Nov-19 10:33N 34°37' E 135°06'6 5.5
2014-Nov-19 09:30N 34°41' E 135°11'0 0.0
2014-Nov-19 08:30N 34°41' E 135°11'5 5.0
2014-Nov-19 07:33N 34°38' E 135°07'5 4.8
2014-Nov-19 06:33N 34°41' E 135°11'0 0.0
2014-Nov-19 05:33N 34°41' E 135°11'3 2.7
2014-Nov-19 04:33N 34°38' E 135°10'3 2.9
2014-Nov-19 03:33N 34°38' E 135°14'4 3.9
2014-Nov-19 02:33N 34°41' E 135°11'0 0.0
2014-Nov-19 01:29N 34°41' E 135°11'0 0.0
2014-Nov-19 00:29N 34°41' E 135°11'0 0.0
2014-Nov-18 23:23N 34°41' E 135°11'0 0.0
2014-Nov-18 22:29N 34°41' E 135°11'0 0.0
2014-Nov-18 21:23N 34°41' E 135°11'0 0.0
2014-Nov-18 20:29N 34°41' E 135°11'0 0.0
2014-Nov-18 19:23N 34°41' E 135°11'0 0.0
2014-Nov-18 18:23N 34°41' E 135°11'0 0.0
2014-Nov-18 17:29N 34°41' E 135°11'0 0.0
2014-Nov-18 16:29N 34°41' E 135°11'0 0.0
2014-Nov-18 15:29N 34°41' E 135°11'0 0.0
2014-Nov-18 14:29N 34°41' E 135°11'0 0.0
2014-Nov-18 13:29N 34°41' E 135°11'0 0.0
2014-Nov-18 12:29N 34°41' E 135°11'6 6.9
2014-Nov-18 11:33N 34°36' E 135°07'1 1.1
2014-Nov-18 10:33N 34°37' E 135°06'6 5.6
2014-Nov-18 09:33N 34°41' E 135°11'0 0.0
2014-Nov-18 08:29N 34°41' E 135°11'5 5.3
2014-Nov-18 07:34N 34°37' E 135°07'5 4.2
2014-Nov-18 06:24N 34°41' E 135°11'0 0.0
2014-Nov-18 05:30N 34°41' E 135°11'3 3.0
2014-Nov-18 04:34N 34°38' E 135°11'2 2.4
2014-Nov-18 03:34N 34°37' E 135°13'4 3.8
2014-Nov-18 02:29N 34°41' E 135°11'0 0.0
2014-Nov-18 01:29N 34°41' E 135°11'0 0.0
2014-Nov-18 00:23N 34°41' E 135°11'0 0.0
2014-Nov-17 23:29N 34°41' E 135°11'0 0.0
2014-Nov-17 22:29N 34°41' E 135°11'0 0.0
2014-Nov-17 21:29N 34°41' E 135°11'0 0.0
2014-Nov-17 20:29N 34°41' E 135°11'0 0.0
2014-Nov-17 19:29N 34°41' E 135°11'0 0.0
2014-Nov-17 18:29N 34°41' E 135°11'0 0.0
2014-Nov-17 17:29N 34°41' E 135°11'0 0.0
2014-Nov-17 16:23N 34°41' E 135°11'0 0.0
2014-Nov-17 15:29N 34°41' E 135°11'0 0.0
2014-Nov-17 14:29N 34°41' E 135°11'0 0.0
2014-Nov-17 13:23N 34°41' E 135°11'0 0.0
2014-Nov-17 12:29N 34°41' E 135°11'6 6.7
2014-Nov-17 11:33N 34°36' E 135°07'1 1.3
2014-Nov-17 10:33N 34°37' E 135°08'5 4.9
2014-Nov-17 09:33N 34°41' E 135°11'5 4.7
2014-Nov-17 08:33N 34°38' E 135°07'5 4.7
2014-Nov-17 07:33N 34°41' E 135°11'0 0.0
2014-Nov-17 06:31N 34°41' E 135°11'0 0.0
2014-Nov-17 05:31N 34°41' E 135°11'2 2.5
2014-Nov-17 04:33N 34°38' E 135°11'2 2.1
2014-Nov-17 03:33N 34°37' E 135°13'4 4.0
2014-Nov-17 02:34N 34°41' E 135°11'0 0.0
2014-Nov-17 01:17N 34°41' E 135°11'0 0.0
2014-Nov-17 00:23N 34°41' E 135°11'0 0.0
2014-Nov-16 23:29N 34°41' E 135°11'0 0.0
2014-Nov-16 22:29N 34°41' E 135°11'0 0.0
2014-Nov-16 21:29N 34°41' E 135°11'0 0.0
2014-Nov-16 20:29N 34°41' E 135°11'0 0.0
2014-Nov-16 19:29N 34°41' E 135°11'0 0.0
2014-Nov-16 18:23N 34°41' E 135°11'0 0.0
2014-Nov-16 17:29N 34°41' E 135°11'0 0.0
2014-Nov-16 16:29N 34°41' E 135°11'0 0.0
2014-Nov-16 15:23N 34°41' E 135°11'0 0.0
2014-Nov-16 14:29N 34°41' E 135°11'0 0.0
2014-Nov-16 13:23N 34°41' E 135°11'0 0.0
2014-Nov-16 12:29N 34°41' E 135°11'6 6.9
2014-Nov-16 11:33N 34°36' E 135°07'1 1.3
2014-Nov-16 10:33N 34°37' E 135°07'5 5.1
2014-Nov-16 09:33N 34°41' E 135°11'3 2.8
2014-Nov-16 08:33N 34°38' E 135°11'2 2.3
2014-Nov-16 07:33N 34°37' E 135°13'4 3.6
2014-Nov-16 06:28N 34°41' E 135°11'0 0.0
2014-Nov-16 05:22N 34°41' E 135°11'3 3.1
2014-Nov-16 04:33N 34°38' E 135°11'2 2.2
2014-Nov-16 03:33N 34°37' E 135°14'4 4.1
2014-Nov-16 02:33N 34°41' E 135°11'0 0.0
2014-Nov-16 01:33N 34°41' E 135°11'0 0.0
2014-Nov-16 00:33N 34°41' E 135°11'0 0.0
2014-Nov-15 23:33N 34°41' E 135°11'0 0.0
2014-Nov-15 22:21N 34°41' E 135°11'0 0.0
2014-Nov-15 21:27N 34°41' E 135°11'0 0.0
2014-Nov-15 20:33N 34°41' E 135°11'0 0.0
2014-Nov-15 19:33N 34°41' E 135°11'0 0.0
2014-Nov-15 18:27N 34°41' E 135°11'0 0.0
2014-Nov-15 17:33N 34°41' E 135°11'0 0.0
2014-Nov-15 16:27N 34°41' E 135°11'0 0.0
2014-Nov-15 15:33N 34°41' E 135°11'0 0.0
2014-Nov-15 14:33N 34°41' E 135°11'0 0.0
2014-Nov-15 13:27N 34°41' E 135°11'0 0.0
2014-Nov-15 12:33N 34°41' E 135°11'6 6.2
2014-Nov-15 11:34N 34°36' E 135°07'1 1.0
2014-Nov-15 10:33N 34°37' E 135°07'5 4.4
2014-Nov-15 09:23N 34°41' E 135°11'3 3.1
2014-Nov-15 08:33N 34°38' E 135°11'3 2.7
2014-Nov-15 07:33N 34°37' E 135°14'4 4.4
2014-Nov-15 06:33N 34°41' E 135°11'0 0.0
2014-Nov-15 05:29N 34°41' E 135°11'6 6.6
2014-Nov-15 04:33N 34°36' E 135°07'1 1.3
2014-Nov-15 03:33N 34°37' E 135°07'5 5.2
2014-Nov-15 02:33N 34°41' E 135°11'0 0.0
2014-Nov-15 01:28N 34°41' E 135°11'0 0.0
2014-Nov-15 00:28N 34°41' E 135°11'0 0.0
2014-Nov-14 23:28N 34°41' E 135°11'0 0.0
2014-Nov-14 22:28N 34°41' E 135°11'0 0.0
2014-Nov-14 21:28N 34°41' E 135°11'0 0.0
2014-Nov-14 20:28N 34°41' E 135°11'0 0.0
2014-Nov-14 19:28N 34°41' E 135°11'0 0.0
2014-Nov-14 18:28N 34°41' E 135°11'0 0.0
2014-Nov-14 17:28N 34°41' E 135°11'0 0.0
2014-Nov-14 16:28N 34°41' E 135°11'0 0.0
2014-Nov-14 15:28N 34°41' E 135°11'0 0.0
2014-Nov-14 14:28N 34°41' E 135°11'0 0.0
2014-Nov-14 12:28N 34°41' E 135°11'5 5.9
2014-Nov-14 11:33N 34°37' E 135°07'1 0.8
2014-Nov-14 10:33N 34°37' E 135°06'6 5.5
2014-Nov-14 09:31N 34°41' E 135°11'0 0.0
2014-Nov-14 08:28N 34°41' E 135°11'5 5.0
2014-Nov-14 07:33N 34°38' E 135°07'5 4.2
2014-Nov-14 06:28N 34°41' E 135°11'0 0.0
2014-Nov-14 05:16N 34°41' E 135°11'3 3.7
2014-Nov-14 04:33N 34°38' E 135°11'3 2.7
2014-Nov-14 03:33N 34°37' E 135°14'4 3.1
2014-Nov-14 02:11N 34°41' E 135°11'0 0.0
2014-Nov-14 01:17N 34°41' E 135°11'0 0.0
2014-Nov-14 00:23N 34°41' E 135°11'0 0.0
2014-Nov-13 23:29N 34°41' E 135°11'0 0.0
2014-Nov-13 22:29N 34°41' E 135°11'0 0.0
2014-Nov-13 21:29N 34°41' E 135°11'0 0.0
2014-Nov-13 20:29N 34°41' E 135°11'0 0.0
2014-Nov-13 19:23N 34°41' E 135°11'0 0.0
2014-Nov-13 18:29N 34°41' E 135°11'0 0.0
2014-Nov-13 17:29N 34°41' E 135°11'0 0.0
2014-Nov-13 16:29N 34°41' E 135°11'0 0.0
2014-Nov-13 15:29N 34°41' E 135°11'0 0.0
2014-Nov-13 14:23N 34°41' E 135°11'0 0.0
2014-Nov-13 13:29N 34°41' E 135°11'0 0.0
2014-Nov-13 12:29N 34°41' E 135°11'7 7.6
2014-Nov-13 11:33N 34°35' E 135°06'1 1.3
2014-Nov-13 10:33N 34°37' E 135°07'6 5.6
2014-Nov-13 09:31N 34°41' E 135°11'5 4.8
2014-Nov-13 08:33N 34°37' E 135°07'5 4.7
2014-Nov-13 07:33N 34°41' E 135°11'0 0.0
2014-Nov-13 06:33N 34°41' E 135°11'0 0.0
2014-Nov-13 05:33N 34°41' E 135°11'3 2.6
2014-Nov-13 04:33N 34°38' E 135°11'2 2.2
2014-Nov-13 03:33N 34°37' E 135°14'4 4.0
2014-Nov-13 02:33N 34°41' E 135°11'0 0.0
2014-Nov-13 01:34N 34°41' E 135°11'0 0.0
2014-Nov-13 00:34N 34°41' E 135°11'0 0.0
2014-Nov-12 23:34N 34°41' E 135°11'0 0.0
2014-Nov-12 22:34N 34°41' E 135°11'0 0.0
2014-Nov-12 21:34N 34°41' E 135°11'0 0.0
2014-Nov-12 20:34N 34°41' E 135°11'0 0.0
2014-Nov-12 19:34N 34°41' E 135°11'0 0.0
2014-Nov-12 18:34N 34°41' E 135°11'0 0.0
2014-Nov-12 17:33N 34°41' E 135°11'0 0.0
2014-Nov-12 16:33N 34°41' E 135°11'0 0.0
2014-Nov-12 15:33N 34°41' E 135°11'0 0.0
2014-Nov-12 14:33N 34°41' E 135°11'0 0.0
2014-Nov-12 13:33N 34°41' E 135°11'0 0.0
2014-Nov-12 12:33N 34°41' E 135°11'5 5.5
2014-Nov-12 11:33N 34°36' E 135°08'1 1.4
2014-Nov-12 10:33N 34°37' E 135°07'6 5.7
2014-Nov-12 09:33N 34°41' E 135°11'0 0.0
2014-Nov-12 08:28N 34°41' E 135°11'5 4.9
2014-Nov-12 07:33N 34°37' E 135°08'4 3.8
2014-Nov-12 06:22N 34°41' E 135°11'0 0.0
2014-Nov-12 05:28N 34°41' E 135°11'3 3.0
2014-Nov-12 04:33N 34°38' E 135°11'3 2.5
2014-Nov-12 03:33N 34°37' E 135°13'4 4.2
2014-Nov-12 02:33N 34°41' E 135°11'0 0.0
2014-Nov-12 01:27N 34°41' E 135°11'0 0.0
2014-Nov-12 00:27N 34°41' E 135°11'0 0.0
2014-Nov-11 23:33N 34°41' E 135°11'0 0.0
2014-Nov-11 22:33N 34°41' E 135°11'0 0.0
2014-Nov-11 21:33N 34°41' E 135°11'0 0.0
2014-Nov-11 20:33N 34°41' E 135°11'0 0.0
2014-Nov-11 19:33N 34°41' E 135°11'0 0.0
2014-Nov-11 18:33N 34°41' E 135°11'0 0.0
2014-Nov-11 17:33N 34°41' E 135°11'0 0.0
2014-Nov-11 16:33N 34°41' E 135°11'0 0.0
2014-Nov-11 15:27N 34°41' E 135°11'0 0.0
2014-Nov-11 14:33N 34°41' E 135°11'0 0.0
2014-Nov-11 13:33N 34°41' E 135°11'0 0.0
2014-Nov-11 12:33N 34°41' E 135°11'6 6.3
2014-Nov-11 11:33N 34°36' E 135°07'1 1.4
2014-Nov-11 10:34N 34°37' E 135°08'  
Track history (hours):
 
Tides and Currents Weather Stations Pressure Air Temp Water Temp Dewpoint Dewpoint Depression Visibility Wind Speed Wind Dir Waves Ship Positions

Luminous Kobe-2

Last reported at 2014-Nov-21 10:33 UTC. Time now 2014-Nov-21 10:39 UTC.
Position N 34°37' E 135°07'.

Length 105 m; draft 4.5 m.

Type: Passenger vessel. MMSI: 431000469.

Date/timePositionNaut miles runAvg speedWind from/ knotsBaromVisibWave heightAir tempDewpointWater temp
2014-Nov-21 10:33N 34°37' E 135°07'6 5.0
2014-Nov-21 09:27N 34°41' E 135°11'0 0.0
2014-Nov-21 08:33N 34°41' E 135°11'5 4.8
2014-Nov-21 07:33N 34°38' E 135°07'5 4.8
2014-Nov-21 06:33N 34°41' E 135°11'0 0.0
2014-Nov-21 05:23N 34°41' E 135°11'2 2.9
2014-Nov-21 04:33N 34°38' E 135°11'2 2.3
2014-Nov-21 03:33N 34°37' E 135°14'4 4.0
2014-Nov-21 02:33N 34°41' E 135°11'0 0.0
2014-Nov-21 01:30N 34°41' E 135°11'0 0.0
2014-Nov-21 00:30N 34°41' E 135°11'0 0.0
2014-Nov-20 23:30N 34°41' E 135°11'0 0.0
2014-Nov-20 22:30N 34°41' E 135°11'0 0.0
2014-Nov-20 21:24N 34°41' E 135°11'0 0.0
2014-Nov-20 20:24N 34°41' E 135°11'0 0.0
2014-Nov-20 19:24N 34°41' E 135°11'0 0.0
2014-Nov-20 18:30N 34°41' E 135°11'0 0.0
2014-Nov-20 17:30N 34°41' E 135°11'0 0.0
2014-Nov-20 16:30N 34°41' E 135°11'0 0.0
2014-Nov-20 15:30N 34°41' E 135°11'0 0.0
2014-Nov-20 14:30N 34°41' E 135°11'0 0.0
2014-Nov-20 13:30N 34°41' E 135°11'0 0.0
2014-Nov-20 12:30N 34°41' E 135°11'7 7.2
2014-Nov-20 11:33N 34°36' E 135°06'2 2.2
2014-Nov-20 10:33N 34°37' E 135°08'5 4.5
2014-Nov-20 09:31N 34°41' E 135°11'5 5.1
2014-Nov-20 08:33N 34°37' E 135°07'5 4.1
2014-Nov-20 07:22N 34°41' E 135°11'0 0.0
2014-Nov-20 06:28N 34°41' E 135°11'0 0.0
2014-Nov-20 05:28N 34°41' E 135°11'3 2.8
2014-Nov-20 04:33N 34°38' E 135°11'3 2.7
2014-Nov-20 03:33N 34°37' E 135°14'5 4.6
2014-Nov-20 02:33N 34°41' E 135°11'0 0.0
2014-Nov-20 01:33N 34°41' E 135°11'0 0.0
2014-Nov-20 00:27N 34°41' E 135°11'0 0.0
2014-Nov-19 23:27N 34°41' E 135°11'0 0.0
2014-Nov-19 22:27N 34°41' E 135°11'0 0.0
2014-Nov-19 21:21N 34°41' E 135°11'0 0.0
2014-Nov-19 20:33N 34°41' E 135°11'0 0.0
2014-Nov-19 19:33N 34°41' E 135°11'0 0.0
2014-Nov-19 18:33N 34°41' E 135°11'0 0.0
2014-Nov-19 17:33N 34°41' E 135°11'0 0.0
2014-Nov-19 16:33N 34°41' E 135°11'0 0.0
2014-Nov-19 15:33N 34°41' E 135°11'0 0.0
2014-Nov-19 14:33N 34°41' E 135°11'0 0.0
2014-Nov-19 13:33N 34°41' E 135°11'0 0.0
2014-Nov-19 12:33N 34°41' E 135°11'6 6.0
2014-Nov-19 11:33N 34°36' E 135°07'1 1.0
2014-Nov-19 10:33N 34°37' E 135°06'6 5.5
2014-Nov-19 09:30N 34°41' E 135°11'0 0.0
2014-Nov-19 08:30N 34°41' E 135°11'5 5.0
2014-Nov-19 07:33N 34°38' E 135°07'5 4.8
2014-Nov-19 06:33N 34°41' E 135°11'0 0.0
2014-Nov-19 05:33N 34°41' E 135°11'3 2.7
2014-Nov-19 04:33N 34°38' E 135°10'3 2.9
2014-Nov-19 03:33N 34°38' E 135°14'4 3.9
2014-Nov-19 02:33N 34°41' E 135°11'0 0.0
2014-Nov-19 01:29N 34°41' E 135°11'0 0.0
2014-Nov-19 00:29N 34°41' E 135°11'0 0.0
2014-Nov-18 23:23N 34°41' E 135°11'0 0.0
2014-Nov-18 22:29N 34°41' E 135°11'0 0.0
2014-Nov-18 21:23N 34°41' E 135°11'0 0.0
2014-Nov-18 20:29N 34°41' E 135°11'0 0.0
2014-Nov-18 19:23N 34°41' E 135°11'0 0.0
2014-Nov-18 18:23N 34°41' E 135°11'0 0.0
2014-Nov-18 17:29N 34°41' E 135°11'0 0.0
2014-Nov-18 16:29N 34°41' E 135°11'0 0.0
2014-Nov-18 15:29N 34°41' E 135°11'0 0.0
2014-Nov-18 14:29N 34°41' E 135°11'0 0.0
2014-Nov-18 13:29N 34°41' E 135°11'0 0.0
2014-Nov-18 12:29N 34°41' E 135°11'6 6.9
2014-Nov-18 11:33N 34°36' E 135°07'1 1.1
2014-Nov-18 10:33N 34°37' E 135°06'6 5.6
2014-Nov-18 09:33N 34°41' E 135°11'0 0.0
2014-Nov-18 08:29N 34°41' E 135°11'5 5.3
2014-Nov-18 07:34N 34°37' E 135°07'5 4.2
2014-Nov-18 06:24N 34°41' E 135°11'0 0.0
2014-Nov-18 05:30N 34°41' E 135°11'3 3.0
2014-Nov-18 04:34N 34°38' E 135°11'2 2.4
2014-Nov-18 03:34N 34°37' E 135°13'4 3.8
2014-Nov-18 02:29N 34°41' E 135°11'0 0.0
2014-Nov-18 01:29N 34°41' E 135°11'0 0.0
2014-Nov-18 00:23N 34°41' E 135°11'0 0.0
2014-Nov-17 23:29N 34°41' E 135°11'0 0.0
2014-Nov-17 22:29N 34°41' E 135°11'0 0.0
2014-Nov-17 21:29N 34°41' E 135°11'0 0.0
2014-Nov-17 20:29N 34°41' E 135°11'0 0.0
2014-Nov-17 19:29N 34°41' E 135°11'0 0.0
2014-Nov-17 18:29N 34°41' E 135°11'0 0.0
2014-Nov-17 17:29N 34°41' E 135°11'0 0.0
2014-Nov-17 16:23N 34°41' E 135°11'0 0.0
2014-Nov-17 15:29N 34°41' E 135°11'0 0.0
2014-Nov-17 14:29N 34°41' E 135°11'0 0.0
2014-Nov-17 13:23N 34°41' E 135°11'0 0.0
2014-Nov-17 12:29N 34°41' E 135°11'6 6.7
2014-Nov-17 11:33N 34°36' E 135°07'1 1.3
2014-Nov-17 10:33N 34°37' E 135°08'5 4.9
2014-Nov-17 09:33N 34°41' E 135°11'5 4.7
2014-Nov-17 08:33N 34°38' E 135°07'5 4.7
2014-Nov-17 07:33N 34°41' E 135°11'0 0.0
2014-Nov-17 06:31N 34°41' E 135°11'0 0.0
2014-Nov-17 05:31N 34°41' E 135°11'2 2.5
2014-Nov-17 04:33N 34°38' E 135°11'2 2.1
2014-Nov-17 03:33N 34°37' E 135°13'4 4.0
2014-Nov-17 02:34N 34°41' E 135°11'0 0.0
2014-Nov-17 01:17N 34°41' E 135°11'0 0.0
2014-Nov-17 00:23N 34°41' E 135°11'0 0.0
2014-Nov-16 23:29N 34°41' E 135°11'0 0.0
2014-Nov-16 22:29N 34°41' E 135°11'0 0.0
2014-Nov-16 21:29N 34°41' E 135°11'0 0.0
2014-Nov-16 20:29N 34°41' E 135°11'0 0.0
2014-Nov-16 19:29N 34°41' E 135°11'0 0.0
2014-Nov-16 18:23N 34°41' E 135°11'0 0.0
2014-Nov-16 17:29N 34°41' E 135°11'0 0.0
2014-Nov-16 16:29N 34°41' E 135°11'0 0.0
2014-Nov-16 15:23N 34°41' E 135°11'0 0.0
2014-Nov-16 14:29N 34°41' E 135°11'0 0.0
2014-Nov-16 13:23N 34°41' E 135°11'0 0.0
2014-Nov-16 12:29N 34°41' E 135°11'6 6.9
2014-Nov-16 11:33N 34°36' E 135°07'1 1.3
2014-Nov-16 10:33N 34°37' E 135°07'5 5.1
2014-Nov-16 09:33N 34°41' E 135°11'3 2.8
2014-Nov-16 08:33N 34°38' E 135°11'2 2.3
2014-Nov-16 07:33N 34°37' E 135°13'4 3.6
2014-Nov-16 06:28N 34°41' E 135°11'0 0.0
2014-Nov-16 05:22N 34°41' E 135°11'3 3.1
2014-Nov-16 04:33N 34°38' E 135°11'2 2.2
2014-Nov-16 03:33N 34°37' E 135°14'4 4.1
2014-Nov-16 02:33N 34°41' E 135°11'0 0.0
2014-Nov-16 01:33N 34°41' E 135°11'0 0.0
2014-Nov-16 00:33N 34°41' E 135°11'0 0.0
2014-Nov-15 23:33N 34°41' E 135°11'0 0.0
2014-Nov-15 22:21N 34°41' E 135°11'0 0.0
2014-Nov-15 21:27N 34°41' E 135°11'0 0.0
2014-Nov-15 20:33N 34°41' E 135°11'0 0.0
2014-Nov-15 19:33N 34°41' E 135°11'0 0.0
2014-Nov-15 18:27N 34°41' E 135°11'0 0.0
2014-Nov-15 17:33N 34°41' E 135°11'0 0.0
2014-Nov-15 16:27N 34°41' E 135°11'0 0.0
2014-Nov-15 15:33N 34°41' E 135°11'0 0.0
2014-Nov-15 14:33N 34°41' E 135°11'0 0.0
2014-Nov-15 13:27N 34°41' E 135°11'0 0.0
2014-Nov-15 12:33N 34°41' E 135°11'6 6.2
2014-Nov-15 11:34N 34°36' E 135°07'1 1.0
2014-Nov-15 10:33N 34°37' E 135°07'5 4.4
2014-Nov-15 09:23N 34°41' E 135°11'3 3.1
2014-Nov-15 08:33N 34°38' E 135°11'3 2.7
2014-Nov-15 07:33N 34°37' E 135°14'4 4.4
2014-Nov-15 06:33N 34°41' E 135°11'0 0.0
2014-Nov-15 05:29N 34°41' E 135°11'6 6.6
2014-Nov-15 04:33N 34°36' E 135°07'1 1.3
2014-Nov-15 03:33N 34°37' E 135°07'5 5.2
2014-Nov-15 02:33N 34°41' E 135°11'0 0.0
2014-Nov-15 01:28N 34°41' E 135°11'0 0.0
2014-Nov-15 00:28N 34°41' E 135°11'0 0.0
2014-Nov-14 23:28N 34°41' E 135°11'0 0.0
2014-Nov-14 22:28N 34°41' E 135°11'0 0.0
2014-Nov-14 21:28N 34°41' E 135°11'0 0.0
2014-Nov-14 20:28N 34°41' E 135°11'0 0.0
2014-Nov-14 19:28N 34°41' E 135°11'0 0.0
2014-Nov-14 18:28N 34°41' E 135°11'0 0.0
2014-Nov-14 17:28N 34°41' E 135°11'0 0.0
2014-Nov-14 16:28N 34°41' E 135°11'0 0.0
2014-Nov-14 15:28N 34°41' E 135°11'0 0.0
2014-Nov-14 14:28N 34°41' E 135°11'0 0.0
2014-Nov-14 12:28N 34°41' E 135°11'5 5.9
2014-Nov-14 11:33N 34°37' E 135°07'1 0.8
2014-Nov-14 10:33N 34°37' E 135°06'6 5.5
2014-Nov-14 09:31N 34°41' E 135°11'0 0.0
2014-Nov-14 08:28N 34°41' E 135°11'5 5.0
2014-Nov-14 07:33N 34°38' E 135°07'5 4.2
2014-Nov-14 06:28N 34°41' E 135°11'0 0.0
2014-Nov-14 05:16N 34°41' E 135°11'3 3.7
2014-Nov-14 04:33N 34°38' E 135°11'3 2.7
2014-Nov-14 03:33N 34°37' E 135°14'4 3.1
2014-Nov-14 02:11N 34°41' E 135°11'0 0.0
2014-Nov-14 01:17N 34°41' E 135°11'0 0.0
2014-Nov-14 00:23N 34°41' E 135°11'0 0.0
2014-Nov-13 23:29N 34°41' E 135°11'0 0.0
2014-Nov-13 22:29N 34°41' E 135°11'0 0.0
2014-Nov-13 21:29N 34°41' E 135°11'0 0.0
2014-Nov-13 20:29N 34°41' E 135°11'0 0.0
2014-Nov-13 19:23N 34°41' E 135°11'0 0.0
2014-Nov-13 18:29N 34°41' E 135°11'0 0.0
2014-Nov-13 17:29N 34°41' E 135°11'0 0.0
2014-Nov-13 16:29N 34°41' E 135°11'0 0.0
2014-Nov-13 15:29N 34°41' E 135°11'0 0.0
2014-Nov-13 14:23N 34°41' E 135°11'0 0.0
2014-Nov-13 13:29N 34°41' E 135°11'0 0.0
2014-Nov-13 12:29N 34°41' E 135°11'7 7.6
2014-Nov-13 11:33N 34°35' E 135°06'1 1.3
2014-Nov-13 10:33N 34°37' E 135°07'6 5.6
2014-Nov-13 09:31N 34°41' E 135°11'5 4.8
2014-Nov-13 08:33N 34°37' E 135°07'5 4.7
2014-Nov-13 07:33N 34°41' E 135°11'0 0.0
2014-Nov-13 06:33N 34°41' E 135°11'0 0.0
2014-Nov-13 05:33N 34°41' E 135°11'3 2.6
2014-Nov-13 04:33N 34°38' E 135°11'2 2.2
2014-Nov-13 03:33N 34°37' E 135°14'4 4.0
2014-Nov-13 02:33N 34°41' E 135°11'0 0.0
2014-Nov-13 01:34N 34°41' E 135°11'0 0.0
2014-Nov-13 00:34N 34°41' E 135°11'0 0.0
2014-Nov-12 23:34N 34°41' E 135°11'0 0.0
2014-Nov-12 22:34N 34°41' E 135°11'0 0.0
2014-Nov-12 21:34N 34°41' E 135°11'0 0.0
2014-Nov-12 20:34N 34°41' E 135°11'0 0.0
2014-Nov-12 19:34N 34°41' E 135°11'0 0.0
2014-Nov-12 18:34N 34°41' E 135°11'0 0.0
2014-Nov-12 17:33N 34°41' E 135°11'0 0.0
2014-Nov-12 16:33N 34°41' E 135°11'0 0.0
2014-Nov-12 15:33N 34°41' E 135°11'0 0.0
2014-Nov-12 14:33N 34°41' E 135°11'0 0.0
2014-Nov-12 13:33N 34°41' E 135°11'0 0.0
2014-Nov-12 12:33N 34°41' E 135°11'5 5.5
2014-Nov-12 11:33N 34°36' E 135°08'1 1.4
2014-Nov-12 10:33N 34°37' E 135°07'6 5.7
2014-Nov-12 09:33N 34°41' E 135°11'0 0.0
2014-Nov-12 08:28N 34°41' E 135°11'5 4.9
2014-Nov-12 07:33N 34°37' E 135°08'4 3.8
2014-Nov-12 06:22N 34°41' E 135°11'0 0.0
2014-Nov-12 05:28N 34°41' E 135°11'3 3.0
2014-Nov-12 04:33N 34°38' E 135°11'3 2.5
2014-Nov-12 03:33N 34°37' E 135°13'4 4.2
2014-Nov-12 02:33N 34°41' E 135°11'0 0.0
2014-Nov-12 01:27N 34°41' E 135°11'0 0.0
2014-Nov-12 00:27N 34°41' E 135°11'0 0.0
2014-Nov-11 23:33N 34°41' E 135°11'0 0.0
2014-Nov-11 22:33N 34°41' E 135°11'0 0.0
2014-Nov-11 21:33N 34°41' E 135°11'0 0.0
2014-Nov-11 20:33N 34°41' E 135°11'0 0.0
2014-Nov-11 19:33N 34°41' E 135°11'0 0.0
2014-Nov-11 18:33N 34°41' E 135°11'0 0.0
2014-Nov-11 17:33N 34°41' E 135°11'0 0.0
2014-Nov-11 16:33N 34°41' E 135°11'0 0.0
2014-Nov-11 15:27N 34°41' E 135°11'0 0.0
2014-Nov-11 14:33N 34°41' E 135°11'0 0.0
2014-Nov-11 13:33N 34°41' E 135°11'0 0.0
2014-Nov-11 12:33N 34°41' E 135°11'6 6.3
2014-Nov-11 11:33N 34°36' E 135°07'1 1.4
2014-Nov-11 10:34N 34°37' E 135°08'  

Dump ship's entire track history